Mugla, Turkey
Current Conditions -  °F | °C
As of 11:50 AM on Monday 26 Jan 2015 (Local Time) from LTFE Reporting Station
Broken Clouds Broken Clouds  
Wind Chill: 55°   Ceiling: 8000
Heat Index: 55°   Visibility: 6mi
Dew Point: 52°   Wind: 5mph
Humidity: 88%   Direction: 80°E
Pressure: 30.09"   Gusts: NA
Location:  37.22°N, 28.36°E
Report Text: LTFE 260950Z 08004KT 9999 SCT030 BKN080 13/11 Q1019 NOSIG
Loading
Personal Weather Stations






























Interactive Weather Map New forecast layout! Learn more

10-Day Weather Forecast

Advertisements
Track Severe Weather on mobile